createdAt,value
2018-07-22T00:02:09.403Z,19.57
2018-07-22T00:04:36.548Z,19.53
2018-07-22T00:07:03.720Z,19.48
2018-07-22T00:09:30.880Z,19.43
2018-07-22T00:11:58.027Z,19.40
2018-07-22T00:14:25.154Z,19.37
2018-07-22T00:16:52.331Z,19.30
2018-07-22T00:19:19.468Z,19.27
2018-07-22T00:21:46.621Z,19.18
2018-07-22T00:24:13.811Z,19.14
2018-07-22T00:26:40.948Z,19.10
2018-07-22T00:29:08.129Z,19.03
2018-07-22T00:31:35.455Z,18.99
2018-07-22T00:34:02.583Z,18.97
2018-07-22T00:36:29.693Z,18.99
2018-07-22T00:38:56.848Z,18.93
2018-07-22T00:41:23.960Z,18.90
2018-07-22T00:43:51.070Z,18.83
2018-07-22T00:46:18.989Z,18.76
2018-07-22T00:48:46.138Z,18.71
2018-07-22T00:51:13.284Z,18.66
2018-07-22T00:53:40.455Z,18.65
2018-07-22T00:56:07.587Z,18.62
2018-07-22T00:58:34.755Z,18.62
2018-07-22T01:01:02.056Z,18.58
2018-07-22T01:03:29.176Z,18.54
2018-07-22T01:05:56.308Z,18.53
2018-07-22T01:08:23.474Z,18.52
2018-07-22T01:10:50.600Z,18.49
2018-07-22T01:13:17.757Z,18.47
2018-07-22T01:15:44.953Z,18.44
2018-07-22T01:18:12.097Z,18.40
2018-07-22T01:20:39.270Z,18.40
2018-07-22T01:23:06.617Z,18.34
2018-07-22T01:25:33.749Z,18.31
2018-07-22T01:28:00.896Z,18.29
2018-07-22T01:30:28.052Z,18.33
2018-07-22T01:32:55.223Z,18.33
2018-07-22T01:35:22.309Z,18.31
2018-07-22T01:37:49.556Z,18.27
2018-07-22T01:40:16.700Z,18.25
2018-07-22T01:42:43.964Z,18.16
2018-07-22T01:45:11.145Z,18.08
2018-07-22T01:47:38.240Z,17.98
2018-07-22T01:50:05.463Z,17.91
2018-07-22T01:52:32.637Z,17.83
2018-07-22T01:54:59.748Z,17.75
2018-07-22T01:57:26.920Z,17.67
2018-07-22T01:59:54.085Z,17.54
2018-07-22T02:02:21.205Z,17.43
2018-07-22T02:04:48.340Z,17.33
2018-07-22T02:07:15.608Z,17.24
2018-07-22T02:09:42.710Z,17.18
2018-07-22T02:12:09.847Z,17.08
2018-07-22T02:14:37.004Z,16.97
2018-07-22T02:17:04.146Z,16.93
2018-07-22T02:19:31.271Z,16.95
2018-07-22T02:21:58.417Z,16.90
2018-07-22T02:24:25.546Z,16.83
2018-07-22T02:26:52.678Z,16.82
2018-07-22T02:29:19.928Z,16.73
2018-07-22T02:31:47.057Z,16.67
2018-07-22T02:34:14.220Z,16.64
2018-07-22T02:36:41.364Z,16.62
2018-07-22T02:39:10.407Z,16.55
2018-07-22T02:41:37.565Z,16.55
2018-07-22T02:44:04.808Z,16.51
2018-07-22T02:46:32.125Z,16.50
2018-07-22T02:48:59.280Z,16.51
2018-07-22T02:51:26.505Z,16.49
2018-07-22T02:53:53.639Z,16.51
2018-07-22T02:56:20.740Z,16.50
2018-07-22T02:58:47.916Z,16.50
2018-07-22T03:01:15.159Z,16.52
2018-07-22T03:03:42.279Z,16.49
2018-07-22T03:06:09.411Z,16.45
2018-07-22T03:08:36.532Z,16.38
2018-07-22T03:11:03.713Z,16.36
2018-07-22T03:13:31.035Z,16.30
2018-07-22T03:15:58.191Z,16.28
2018-07-22T03:18:25.344Z,16.32
2018-07-22T03:20:52.504Z,16.38
2018-07-22T03:23:19.664Z,16.40
2018-07-22T03:25:46.808Z,16.46
2018-07-22T03:28:14.001Z,16.43
2018-07-22T03:30:41.121Z,16.38
2018-07-22T03:33:08.233Z,16.38
2018-07-22T03:35:36.347Z,16.38
2018-07-22T03:38:03.446Z,16.37
2018-07-22T03:40:30.555Z,16.34
2018-07-22T03:42:57.705Z,16.33
2018-07-22T03:45:24.825Z,16.32
2018-07-22T03:47:51.934Z,16.39
2018-07-22T03:50:19.156Z,16.40
2018-07-22T03:52:46.288Z,16.46
2018-07-22T03:55:13.431Z,16.53
2018-07-22T03:57:40.600Z,16.58
2018-07-22T04:00:07.760Z,16.63
2018-07-22T04:02:34.902Z,16.68
2018-07-22T04:05:02.067Z,16.78
2018-07-22T04:07:29.229Z,16.90
2018-07-22T04:09:56.369Z,16.92
2018-07-22T04:12:23.554Z,16.97
2018-07-22T04:14:50.675Z,17.05
2018-07-22T04:17:17.815Z,17.12
2018-07-22T04:19:45.080Z,17.23
2018-07-22T04:22:12.216Z,17.30
2018-07-22T04:24:39.324Z,17.39
2018-07-22T04:27:06.520Z,17.45
2018-07-22T04:29:33.640Z,17.51
2018-07-22T04:32:00.752Z,17.56
2018-07-22T04:34:28.021Z,17.63
2018-07-22T04:36:55.201Z,17.74
2018-07-22T04:39:22.315Z,17.84
2018-07-22T04:41:49.495Z,17.94
2018-07-22T04:44:16.608Z,18.05
2018-07-22T04:46:43.738Z,18.15
2018-07-22T04:49:10.907Z,18.27
2018-07-22T04:51:38.016Z,18.41
2018-07-22T04:54:05.145Z,18.48
2018-07-22T04:56:32.317Z,18.64
2018-07-22T04:58:59.449Z,18.79
2018-07-22T05:01:26.560Z,18.94
2018-07-22T05:03:53.903Z,19.08
2018-07-22T05:06:21.033Z,19.17
2018-07-22T05:08:48.143Z,19.30
2018-07-22T05:11:15.353Z,19.43
2018-07-22T05:13:42.471Z,19.60
2018-07-22T05:16:09.630Z,19.72
2018-07-22T05:18:36.788Z,19.78
2018-07-22T05:21:03.932Z,19.88
2018-07-22T05:23:31.038Z,19.97
2018-07-22T05:25:58.195Z,20.12
2018-07-22T05:28:25.336Z,20.24
2018-07-22T05:30:52.472Z,20.37
2018-07-22T05:33:19.645Z,20.47
2018-07-22T05:35:46.865Z,20.56
2018-07-22T05:38:14.070Z,20.59
2018-07-22T05:40:41.367Z,20.55
2018-07-22T05:43:08.535Z,20.66
2018-07-22T05:45:36.484Z,20.66
2018-07-22T05:48:03.688Z,20.70
2018-07-22T05:50:30.821Z,20.85
2018-07-22T05:52:57.996Z,20.85
2018-07-22T05:55:25.168Z,20.97
2018-07-22T05:57:52.309Z,21.19
2018-07-22T06:00:19.440Z,21.26
2018-07-22T06:02:46.713Z,21.39
2018-07-22T06:05:13.848Z,21.51
2018-07-22T06:07:41.001Z,21.61
2018-07-22T06:10:08.214Z,21.59
2018-07-22T06:12:35.348Z,21.70
2018-07-22T06:15:02.517Z,21.78
2018-07-22T06:17:29.781Z,21.90
2018-07-22T06:19:56.903Z,22.07
2018-07-22T06:22:24.037Z,22.19
2018-07-22T06:24:51.207Z,22.26
2018-07-22T06:27:18.352Z,22.44
2018-07-22T06:29:45.483Z,22.58
2018-07-22T06:32:12.753Z,22.69
2018-07-22T06:34:39.890Z,22.93
2018-07-22T06:37:07.169Z,23.15
2018-07-22T06:39:34.506Z,23.25
2018-07-22T06:42:01.669Z,23.45
2018-07-22T06:44:28.812Z,23.51
2018-07-22T06:46:55.985Z,23.49
2018-07-22T06:49:23.108Z,23.64
2018-07-22T06:51:50.268Z,23.68
2018-07-22T06:54:17.542Z,23.77
2018-07-22T06:56:44.669Z,23.87
2018-07-22T06:59:11.863Z,23.94
2018-07-22T07:01:39.059Z,24.07
2018-07-22T07:04:06.212Z,23.98
2018-07-22T07:06:33.347Z,24.20
2018-07-22T07:09:00.533Z,24.38
2018-07-22T07:11:27.705Z,23.98
2018-07-22T07:13:54.860Z,24.20
2018-07-22T07:16:22.059Z,24.06
2018-07-22T07:18:49.195Z,24.47
2018-07-22T07:21:16.340Z,24.80
2018-07-22T07:23:43.528Z,24.98
2018-07-22T07:26:10.645Z,24.89
2018-07-22T07:28:37.771Z,24.96
2018-07-22T07:31:04.941Z,25.38
2018-07-22T07:33:32.125Z,25.39
2018-07-22T07:35:59.255Z,25.65
2018-07-22T07:38:26.522Z,25.63
2018-07-22T07:40:53.708Z,25.82
2018-07-22T07:43:20.832Z,25.87
2018-07-22T07:45:48.047Z,26.05
2018-07-22T07:48:15.201Z,26.19
2018-07-22T07:50:42.327Z,26.08
2018-07-22T07:53:09.463Z,26.27
2018-07-22T07:55:36.588Z,26.31
2018-07-22T07:58:03.736Z,26.28
2018-07-22T08:00:30.903Z,26.06
2018-07-22T08:02:58.100Z,26.05
2018-07-22T08:05:25.339Z,25.84
2018-07-22T08:07:52.495Z,26.06
2018-07-22T08:10:19.635Z,25.68
2018-07-22T08:12:46.760Z,26.20
2018-07-22T08:15:13.965Z,26.43
2018-07-22T08:17:41.081Z,26.24
2018-07-22T08:20:08.261Z,26.52
2018-07-22T08:22:35.453Z,26.52
2018-07-22T08:25:02.684Z,26.37
2018-07-22T08:27:29.856Z,26.18
2018-07-22T08:29:57.125Z,26.68
2018-07-22T08:32:24.299Z,26.78
2018-07-22T08:34:51.444Z,26.75
2018-07-22T08:37:18.587Z,26.69
2018-07-22T08:39:45.716Z,26.74
2018-07-22T08:42:12.907Z,26.70
2018-07-22T08:44:40.060Z,26.76
2018-07-22T08:47:07.167Z,26.93
2018-07-22T08:49:34.288Z,27.13
2018-07-22T08:52:01.476Z,26.89
2018-07-22T08:54:28.633Z,27.07
2018-07-22T08:56:55.800Z,27.30
2018-07-22T08:59:23.087Z,27.26
2018-07-22T09:01:50.245Z,27.79
2018-07-22T09:04:17.403Z,28.22
2018-07-22T09:06:44.591Z,28.40
2018-07-22T09:09:12.184Z,28.67
2018-07-22T09:11:39.381Z,28.43
2018-07-22T09:14:07.248Z,28.20
2018-07-22T09:16:34.396Z,28.48
2018-07-22T09:19:01.532Z,28.61
2018-07-22T09:21:28.692Z,28.92
2018-07-22T09:23:55.844Z,29.19
2018-07-22T09:26:22.960Z,28.90
2018-07-22T09:28:50.141Z,28.80
2018-07-22T09:31:17.299Z,28.72
2018-07-22T09:33:44.416Z,28.26
2018-07-22T09:36:11.687Z,28.43
2018-07-22T09:38:38.792Z,28.08
2018-07-22T09:41:06.003Z,28.04
2018-07-22T09:43:33.260Z,28.21
2018-07-22T09:46:00.404Z,29.08
2018-07-22T09:48:27.637Z,29.10
2018-07-22T09:50:54.825Z,28.97
2018-07-22T09:53:21.944Z,29.34
2018-07-22T09:55:49.798Z,29.51
2018-07-22T09:58:17.075Z,29.53
2018-07-22T10:00:49.865Z,29.28
2018-07-22T10:03:17.194Z,28.90
2018-07-22T10:05:44.348Z,29.46
2018-07-22T10:08:11.469Z,29.80
2018-07-22T10:10:38.611Z,29.87
2018-07-22T10:13:06.288Z,29.87
2018-07-22T10:15:33.458Z,30.00
2018-07-22T10:18:00.697Z,29.67
2018-07-22T10:20:27.862Z,29.70
2018-07-22T10:22:54.976Z,29.70
2018-07-22T10:25:22.233Z,29.68
2018-07-22T10:27:49.358Z,29.31
2018-07-22T10:30:16.532Z,29.52
2018-07-22T10:32:43.679Z,29.51
2018-07-22T10:35:10.805Z,29.57
2018-07-22T10:37:38.008Z,29.35
2018-07-22T10:40:05.201Z,29.38
2018-07-22T10:42:32.435Z,29.53
2018-07-22T10:44:59.617Z,29.67
2018-07-22T10:47:26.819Z,29.47
2018-07-22T10:49:53.938Z,29.68
2018-07-22T10:52:21.059Z,29.83
2018-07-22T10:54:48.239Z,30.01
2018-07-22T10:57:15.363Z,29.81
2018-07-22T10:59:42.508Z,30.78
2018-07-22T11:02:09.669Z,32.26
2018-07-22T11:04:36.819Z,33.12
2018-07-22T11:07:03.984Z,33.60
2018-07-22T11:09:31.245Z,34.16
2018-07-22T11:11:58.391Z,34.41
2018-07-22T11:14:25.645Z,33.52
2018-07-22T11:16:52.835Z,33.21
2018-07-22T11:19:20.000Z,33.30
2018-07-22T11:21:47.155Z,33.27
2018-07-22T11:24:14.367Z,33.27
2018-07-22T11:26:41.536Z,33.11
2018-07-22T11:29:08.736Z,32.89
2018-07-22T11:31:35.892Z,32.25
2018-07-22T11:34:03.053Z,31.40
2018-07-22T11:36:30.171Z,31.27
2018-07-22T11:38:57.350Z,30.95
2018-07-22T11:41:24.484Z,30.91
2018-07-22T11:43:51.639Z,31.24
2018-07-22T11:46:18.962Z,30.69
2018-07-22T11:48:46.158Z,30.63
2018-07-22T11:51:13.274Z,31.02
2018-07-22T11:53:41.205Z,31.17
2018-07-22T11:56:08.356Z,31.83
2018-07-22T11:58:35.501Z,32.05
2018-07-22T12:01:02.672Z,32.89
2018-07-22T12:03:29.819Z,33.37
2018-07-22T12:05:56.951Z,33.00
2018-07-22T12:08:24.129Z,32.95
2018-07-22T12:10:51.278Z,32.39
2018-07-22T12:13:18.435Z,32.14
2018-07-22T12:15:45.647Z,31.52
2018-07-22T12:18:12.796Z,31.09
2018-07-22T12:20:39.963Z,31.19
2018-07-22T12:23:07.225Z,31.27
2018-07-22T12:25:34.899Z,31.08
2018-07-22T12:28:02.117Z,30.84
2018-07-22T12:30:29.294Z,30.80
2018-07-22T12:32:56.408Z,30.72
2018-07-22T12:35:23.544Z,30.38
2018-07-22T12:37:50.688Z,30.35
2018-07-22T12:40:17.826Z,30.37
2018-07-22T12:42:44.967Z,30.23
2018-07-22T12:45:12.510Z,30.28
2018-07-22T12:47:39.671Z,30.15
2018-07-22T12:50:06.804Z,30.55
2018-07-22T12:52:33.967Z,30.37
2018-07-22T12:55:01.109Z,30.28
2018-07-22T12:57:28.240Z,30.67
2018-07-22T12:59:55.417Z,30.79
2018-07-22T13:02:22.519Z,30.91
2018-07-22T13:04:49.659Z,30.75
2018-07-22T13:07:16.848Z,30.75
2018-07-22T13:09:43.984Z,30.41
2018-07-22T13:12:11.108Z,29.99
2018-07-22T13:14:38.309Z,29.99
2018-07-22T13:17:05.445Z,29.55
2018-07-22T13:19:32.589Z,29.66
2018-07-22T13:21:59.739Z,29.72
2018-07-22T13:24:26.880Z,29.68
2018-07-22T13:26:53.990Z,29.80
2018-07-22T13:29:21.181Z,29.37
2018-07-22T13:31:48.311Z,29.44
2018-07-22T13:34:15.442Z,29.54
2018-07-22T13:36:42.608Z,29.68
2018-07-22T13:39:11.069Z,29.79
2018-07-22T13:41:38.608Z,29.95
2018-07-22T13:44:05.872Z,29.98
2018-07-22T13:46:33.540Z,30.05
2018-07-22T13:49:00.765Z,30.02
2018-07-22T13:51:28.051Z,30.20
2018-07-22T13:53:55.165Z,30.24
2018-07-22T13:56:22.304Z,30.10
2018-07-22T13:58:49.508Z,30.29
2018-07-22T14:01:16.661Z,30.48
2018-07-22T14:03:43.805Z,30.57
2018-07-22T14:06:11.057Z,30.83
2018-07-22T14:08:38.187Z,31.25
2018-07-22T14:11:05.324Z,31.31
2018-07-22T14:13:32.553Z,31.29
2018-07-22T14:15:59.680Z,30.96
2018-07-22T14:18:26.832Z,30.79
2018-07-22T14:20:54.113Z,30.58
2018-07-22T14:23:21.234Z,30.64
2018-07-22T14:25:48.364Z,30.58
2018-07-22T14:28:15.544Z,30.61
2018-07-22T14:30:42.653Z,30.54
2018-07-22T14:33:09.792Z,30.38
2018-07-22T14:35:36.966Z,30.45
2018-07-22T14:38:04.166Z,30.64
2018-07-22T14:40:31.287Z,30.66
2018-07-22T14:42:58.461Z,30.37
2018-07-22T14:45:25.591Z,30.28
2018-07-22T14:47:52.769Z,30.55
2018-07-22T14:50:20.064Z,30.53
2018-07-22T14:52:47.199Z,31.05
2018-07-22T14:55:14.329Z,31.53
2018-07-22T14:57:41.536Z,31.67
2018-07-22T15:00:08.668Z,31.50
2018-07-22T15:02:35.810Z,31.65
2018-07-22T15:05:03.085Z,31.16
2018-07-22T15:07:30.213Z,31.27
2018-07-22T15:09:57.388Z,31.12
2018-07-22T15:12:24.607Z,30.50
2018-07-22T15:14:51.748Z,30.40
2018-07-22T15:17:18.911Z,30.03
2018-07-22T15:19:46.076Z,29.73
2018-07-22T15:22:13.228Z,29.53
2018-07-22T15:24:40.368Z,29.34
2018-07-22T15:27:08.515Z,29.09
2018-07-22T15:29:36.159Z,28.97
2018-07-22T15:32:03.471Z,28.90
2018-07-22T15:34:30.610Z,28.76
2018-07-22T15:36:57.735Z,28.57
2018-07-22T15:39:24.852Z,28.40
2018-07-22T15:41:52.080Z,28.18
2018-07-22T15:44:19.207Z,28.03
2018-07-22T15:46:46.340Z,27.79
2018-07-22T15:49:13.487Z,27.68
2018-07-22T15:51:41.459Z,27.70
2018-07-22T15:54:08.569Z,27.57
2018-07-22T15:56:35.735Z,27.64
2018-07-22T15:59:02.885Z,27.77
2018-07-22T16:01:30.163Z,27.85
2018-07-22T16:03:57.292Z,27.82
2018-07-22T16:06:24.404Z,27.74
2018-07-22T16:08:51.653Z,27.75
2018-07-22T16:11:18.829Z,27.62
2018-07-22T16:13:45.964Z,27.80
2018-07-22T16:16:13.059Z,27.86
2018-07-22T16:18:40.271Z,27.86
2018-07-22T16:21:07.368Z,28.24
2018-07-22T16:23:34.504Z,28.39
2018-07-22T16:26:01.668Z,28.21
2018-07-22T16:28:28.781Z,28.22
2018-07-22T16:30:55.892Z,28.14
2018-07-22T16:33:23.069Z,27.93
2018-07-22T16:35:50.200Z,27.96
2018-07-22T16:38:17.345Z,27.93
2018-07-22T16:40:44.601Z,28.10
2018-07-22T16:43:11.729Z,28.46
2018-07-22T16:45:38.864Z,29.21
2018-07-22T16:48:06.073Z,29.68
2018-07-22T16:50:33.245Z,29.94
2018-07-22T16:53:00.548Z,29.88
2018-07-22T16:55:27.808Z,29.65
2018-07-22T16:57:54.920Z,29.37
2018-07-22T17:00:22.055Z,29.07
2018-07-22T17:02:49.236Z,28.71
2018-07-22T17:05:16.351Z,28.43
2018-07-22T17:07:43.474Z,28.22
2018-07-22T17:10:10.663Z,27.99
2018-07-22T17:12:37.789Z,27.79
2018-07-22T17:15:04.944Z,27.59
2018-07-22T17:17:32.130Z,27.44
2018-07-22T17:19:59.260Z,27.30
2018-07-22T17:22:26.383Z,27.19
2018-07-22T17:24:53.636Z,27.11
2018-07-22T17:27:20.783Z,27.06
2018-07-22T17:29:47.915Z,27.00
2018-07-22T17:32:15.093Z,26.94
2018-07-22T17:34:42.284Z,26.84
2018-07-22T17:37:09.408Z,26.76
2018-07-22T17:39:36.665Z,26.64
2018-07-22T17:42:03.799Z,26.51
2018-07-22T17:44:30.957Z,26.40
2018-07-22T17:46:58.108Z,26.30
2018-07-22T17:49:25.252Z,26.20
2018-07-22T17:51:52.403Z,26.12
2018-07-22T17:54:19.627Z,26.05
2018-07-22T17:56:46.748Z,25.97
2018-07-22T17:59:13.895Z,25.89
2018-07-22T18:01:41.089Z,25.83
2018-07-22T18:04:08.236Z,25.73
2018-07-22T18:06:35.434Z,25.65
2018-07-22T18:09:02.725Z,25.57
2018-07-22T18:11:29.835Z,25.48
2018-07-22T18:13:56.954Z,25.40
2018-07-22T18:16:24.158Z,25.33
2018-07-22T18:18:51.314Z,25.25
2018-07-22T18:21:18.459Z,25.16
2018-07-22T18:23:45.712Z,25.09
2018-07-22T18:26:12.836Z,24.99
2018-07-22T18:28:39.952Z,24.94
2018-07-22T18:31:07.131Z,24.87
2018-07-22T18:33:34.256Z,24.77
2018-07-22T18:36:01.390Z,24.66
2018-07-22T18:38:28.568Z,24.59
2018-07-22T18:40:55.701Z,24.49
2018-07-22T18:43:22.855Z,24.37
2018-07-22T18:45:50.048Z,24.25
2018-07-22T18:48:17.201Z,24.09
2018-07-22T18:50:44.341Z,23.95
2018-07-22T18:53:11.583Z,23.87
2018-07-22T18:55:38.739Z,23.70
2018-07-22T18:58:05.901Z,23.55
2018-07-22T19:00:33.095Z,23.40
2018-07-22T19:03:00.228Z,23.26
2018-07-22T19:05:27.400Z,23.14
2018-07-22T19:07:54.687Z,23.01
2018-07-22T19:10:21.816Z,22.87
2018-07-22T19:12:48.989Z,22.81
2018-07-22T19:15:16.178Z,22.70
2018-07-22T19:17:43.343Z,22.58
2018-07-22T19:20:10.508Z,22.43
2018-07-22T19:22:37.765Z,22.29
2018-07-22T19:25:04.905Z,22.17
2018-07-22T19:27:32.091Z,22.06
2018-07-22T19:29:59.280Z,21.97
2018-07-22T19:32:26.388Z,21.87
2018-07-22T19:34:53.509Z,21.80
2018-07-22T19:37:20.660Z,21.70
2018-07-22T19:39:47.790Z,21.65
2018-07-22T19:42:14.908Z,21.61
2018-07-22T19:44:42.141Z,21.55
2018-07-22T19:47:09.257Z,21.46
2018-07-22T19:49:36.384Z,21.39
2018-07-22T19:52:03.633Z,21.37
2018-07-22T19:54:31.760Z,21.28
2018-07-22T19:56:58.961Z,21.27
2018-07-22T19:59:26.128Z,21.21
2018-07-22T20:01:53.252Z,21.20
2018-07-22T20:04:20.374Z,21.19
2018-07-22T20:06:47.577Z,21.12
2018-07-22T20:09:14.669Z,21.32
2018-07-22T20:11:42.422Z,21.39
2018-07-22T20:14:09.650Z,21.50
2018-07-22T20:16:36.800Z,21.68
2018-07-22T20:19:03.974Z,21.67
2018-07-22T20:21:31.658Z,21.87
2018-07-22T20:23:58.828Z,21.91
2018-07-22T20:26:25.980Z,21.88
2018-07-22T20:28:53.287Z,21.87
2018-07-22T20:31:20.413Z,21.92
2018-07-22T20:33:47.685Z,21.99
2018-07-22T20:36:15.123Z,21.92
2018-07-22T20:38:42.272Z,21.95
2018-07-22T20:41:09.458Z,21.98
2018-07-22T20:43:36.691Z,22.02
2018-07-22T20:46:03.911Z,21.83
2018-07-22T20:48:31.098Z,21.83
2018-07-22T20:50:58.688Z,21.84
2018-07-22T20:53:25.808Z,21.81
2018-07-22T20:55:52.981Z,21.77
2018-07-22T20:58:20.263Z,21.74
2018-07-22T21:00:47.532Z,21.69
2018-07-22T21:03:14.675Z,21.62
2018-07-22T21:05:41.880Z,21.66
2018-07-22T21:08:09.106Z,21.67
2018-07-22T21:10:36.163Z,21.60
2018-07-22T21:13:15.844Z,21.63
2018-07-22T21:15:42.963Z,21.66
2018-07-22T21:18:10.091Z,21.62
2018-07-22T21:20:37.307Z,21.58
2018-07-22T21:23:04.657Z,21.54
2018-07-22T21:25:31.783Z,21.52
2018-07-22T21:27:59.059Z,21.48
2018-07-22T21:30:26.204Z,21.47
2018-07-22T21:32:53.337Z,21.29
2018-07-22T21:35:20.519Z,21.17
2018-07-22T21:37:47.651Z,21.02
2018-07-22T21:40:14.826Z,20.89
2018-07-22T21:42:42.005Z,20.79
2018-07-22T21:45:09.119Z,20.71
2018-07-22T21:47:36.341Z,20.60
2018-07-22T21:50:04.164Z,20.50
2018-07-22T21:52:31.285Z,20.42
2018-07-22T21:54:58.395Z,20.33
2018-07-22T21:57:25.547Z,20.24
2018-07-22T21:59:52.780Z,20.16
2018-07-22T22:02:19.948Z,20.10
2018-07-22T22:04:47.220Z,20.11
2018-07-22T22:07:14.368Z,20.07
2018-07-22T22:09:41.544Z,19.99
2018-07-22T22:12:08.756Z,19.94
2018-07-22T22:14:35.941Z,19.94
2018-07-22T22:17:03.111Z,19.91
2018-07-22T22:19:30.415Z,19.89
2018-07-22T22:21:57.534Z,19.81
2018-07-22T22:24:24.660Z,19.80
2018-07-22T22:26:51.830Z,19.77
2018-07-22T22:29:18.958Z,19.75
2018-07-22T22:31:46.080Z,19.68
2018-07-22T22:34:13.252Z,19.71
2018-07-22T22:36:40.363Z,19.66
2018-07-22T22:39:08.848Z,19.61
2018-07-22T22:41:36.019Z,19.56
2018-07-22T22:44:03.163Z,19.48
2018-07-22T22:46:30.293Z,19.44
2018-07-22T22:48:57.483Z,19.50
2018-07-22T22:51:24.740Z,19.50
2018-07-22T22:53:51.949Z,19.59
2018-07-22T22:56:19.111Z,19.53
2018-07-22T22:58:57.789Z,19.50
2018-07-22T23:01:25.043Z,19.51
2018-07-22T23:03:52.181Z,19.56
2018-07-22T23:06:19.295Z,19.58
2018-07-22T23:08:46.443Z,19.53
2018-07-22T23:11:13.560Z,19.50
2018-07-22T23:13:40.687Z,19.45
2018-07-22T23:16:07.880Z,19.47
2018-07-22T23:18:34.992Z,19.48
2018-07-22T23:21:02.110Z,19.46
2018-07-22T23:23:29.248Z,19.46
2018-07-22T23:25:56.384Z,19.50
2018-07-22T23:28:23.505Z,19.48
2018-07-22T23:30:50.701Z,19.52
2018-07-22T23:33:17.904Z,19.46
2018-07-22T23:35:45.069Z,19.38
2018-07-22T23:38:12.223Z,19.35
2018-07-22T23:40:39.365Z,19.29
2018-07-22T23:43:06.480Z,19.25
2018-07-22T23:45:33.627Z,19.23
2018-07-22T23:48:00.824Z,19.22
2018-07-22T23:50:27.945Z,19.19
2018-07-22T23:52:55.213Z,19.13
2018-07-22T23:55:22.331Z,19.05
2018-07-22T23:57:49.476Z,19.02
